createdAt,value
2022-09-23T05:08:51.182Z,96545.38
2022-09-23T05:11:17.517Z,96545.97
2022-09-23T05:13:43.868Z,96533.16
2022-09-23T05:16:10.274Z,96535.13
2022-09-23T05:18:36.636Z,96540.63
2022-09-23T05:21:02.982Z,96538.44
2022-09-23T05:23:29.311Z,96557.88
2022-09-23T05:25:55.652Z,96552.81
2022-09-23T05:28:21.980Z,96550.66
2022-09-23T05:30:48.313Z,96554.69
2022-09-23T05:33:14.637Z,96546.69
2022-09-23T05:35:40.968Z,96557.56
2022-09-23T05:38:07.347Z,96561.09
2022-09-23T05:40:33.714Z,96559.31
2022-09-23T05:43:00.123Z,96561.09
2022-09-23T05:45:27.018Z,96557.94
2022-09-23T05:47:53.408Z,96558.50
2022-09-23T05:50:19.727Z,96564.53
2022-09-23T05:52:46.067Z,96559.50
2022-09-23T05:55:12.392Z,96558.44
2022-09-23T05:57:38.730Z,96559.50
2022-09-23T06:00:05.059Z,96563.19
2022-09-23T06:02:31.508Z,96566.84
2022-09-23T06:04:57.865Z,96557.34
2022-09-23T06:07:24.205Z,96551.22
2022-09-23T06:09:50.552Z,96566.44
2022-09-23T06:12:16.881Z,96561.09
2022-09-23T06:14:43.213Z,96558.50
2022-09-23T06:17:09.540Z,96552.38
2022-09-23T06:19:35.865Z,96551.09
2022-09-23T06:22:02.194Z,96553.69
2022-09-23T06:24:31.346Z,96550.22
2022-09-23T06:26:58.105Z,96552.59
2022-09-23T06:29:24.447Z,96556.84
2022-09-23T06:31:50.838Z,96552.53
2022-09-23T06:34:17.388Z,96559.03
2022-09-23T06:36:45.962Z,96555.19
2022-09-23T06:39:12.659Z,96551.44
2022-09-23T06:41:38.995Z,96553.59
2022-09-23T06:44:05.317Z,96555.78
2022-09-23T06:46:31.760Z,96561.09
2022-09-23T06:48:58.196Z,96558.44
2022-09-23T06:51:24.526Z,96561.09
2022-09-23T06:53:50.857Z,96555.25
2022-09-23T06:56:17.189Z,96560.66
2022-09-23T06:58:43.513Z,96557.94
2022-09-23T07:01:09.897Z,96559.50
2022-09-23T07:03:36.275Z,96567.56
2022-09-23T07:06:02.592Z,96562.75
2022-09-23T07:08:28.926Z,96565.97
2022-09-23T07:10:55.248Z,96569.66
2022-09-23T07:13:21.580Z,96567.34
2022-09-23T07:15:47.944Z,96567.19
2022-09-23T07:18:14.281Z,96568.56
2022-09-23T07:20:40.604Z,96577.44
2022-09-23T07:23:06.928Z,96576.56
2022-09-23T07:25:33.253Z,96568.34
2022-09-23T07:27:59.576Z,96572.53
2022-09-23T07:30:25.916Z,96578.66
2022-09-23T07:32:52.269Z,96573.47
2022-09-23T07:35:18.680Z,96571.03
2022-09-23T07:37:45.030Z,96570.59
2022-09-23T07:40:11.458Z,96568.00
2022-09-23T07:42:37.850Z,96561.53
2022-09-23T07:45:04.193Z,96574.78
2022-09-23T07:47:30.534Z,96578.72
2022-09-23T07:49:56.857Z,96584.97
2022-09-23T07:52:23.192Z,96577.00
2022-09-23T07:54:49.521Z,96572.19
2022-09-23T07:57:15.874Z,96571.66
2022-09-23T07:59:42.214Z,96571.59
2022-09-23T08:02:08.551Z,96576.94
2022-09-23T08:04:34.889Z,96567.84
2022-09-23T08:07:01.238Z,96584.41
2022-09-23T08:09:27.634Z,96575.19
2022-09-23T08:11:53.964Z,96577.34
2022-09-23T08:14:20.307Z,96578.50
2022-09-23T08:16:46.628Z,96584.91
2022-09-23T08:19:14.016Z,96580.09
2022-09-23T08:21:40.351Z,96580.09
2022-09-23T08:24:06.779Z,96576.34
2022-09-23T08:26:33.188Z,96580.69
2022-09-23T08:28:59.520Z,96577.91
2022-09-23T08:31:25.886Z,96582.47
2022-09-23T08:33:52.308Z,96577.28
2022-09-23T08:36:18.637Z,96573.03
2022-09-23T08:38:44.973Z,96576.28
2022-09-23T08:41:11.309Z,96574.84
2022-09-23T08:43:37.645Z,96578.22
2022-09-23T08:46:04.022Z,96582.38
2022-09-23T08:48:30.364Z,96576.28
2022-09-23T08:50:56.704Z,96581.38
2022-09-23T08:53:23.027Z,96578.06
2022-09-23T08:55:49.373Z,96582.84
2022-09-23T08:58:25.033Z,96575.47
2022-09-23T09:00:52.161Z,96574.91
2022-09-23T09:03:18.478Z,96565.22
2022-09-23T09:05:53.790Z,96569.00
2022-09-23T09:08:20.649Z,96564.94
2022-09-23T09:10:46.978Z,96561.00
2022-09-23T09:13:13.305Z,96565.16
2022-09-23T09:15:39.669Z,96560.34
2022-09-23T09:18:06.191Z,96553.91
2022-09-23T09:20:32.547Z,96555.38
2022-09-23T09:22:58.959Z,96562.09
2022-09-23T09:25:25.288Z,96550.38
2022-09-23T09:27:51.617Z,96549.25
2022-09-23T09:30:17.960Z,96550.84
2022-09-23T09:32:44.310Z,96547.59
2022-09-23T09:35:10.641Z,96547.50
2022-09-23T09:37:36.963Z,96546.44
2022-09-23T09:40:03.292Z,96540.69
2022-09-23T09:42:29.831Z,96535.84
2022-09-23T09:44:56.163Z,96540.59
2022-09-23T09:47:22.489Z,96533.53
2022-09-23T09:49:48.808Z,96529.75
2022-09-23T09:52:15.140Z,96532.97
2022-09-23T09:54:41.401Z,96537.13
2022-09-23T09:57:07.730Z,96534.19
2022-09-23T09:59:34.075Z,96534.91
2022-09-23T10:02:00.409Z,96539.34
2022-09-23T10:04:26.775Z,96531.88
2022-09-23T10:06:53.125Z,96532.31
2022-09-23T10:09:19.521Z,96528.69
2022-09-23T10:11:45.875Z,96528.03
2022-09-23T10:14:12.205Z,96532.72
2022-09-23T10:16:38.582Z,96525.59
2022-09-23T10:19:04.928Z,96527.19
2022-09-23T10:21:31.266Z,96522.81
2022-09-23T10:23:57.620Z,96509.63
2022-09-23T10:26:23.948Z,96506.53
2022-09-23T10:28:50.287Z,96510.69
2022-09-23T10:31:16.711Z,96502.97
2022-09-23T10:33:43.100Z,96501.38
2022-09-23T10:36:09.432Z,96493.88
2022-09-23T10:38:35.756Z,96488.97
2022-09-23T10:41:02.214Z,96482.84
2022-09-23T10:43:28.676Z,96486.47
2022-09-23T10:45:55.039Z,96486.69
2022-09-23T10:48:21.420Z,96486.19
2022-09-23T10:50:47.749Z,96484.41
2022-09-23T10:53:14.073Z,96479.88
2022-09-23T10:55:40.402Z,96477.91
2022-09-23T10:58:06.738Z,96465.88
2022-09-23T11:00:33.061Z,96469.59
2022-09-23T11:02:59.401Z,96473.66
2022-09-23T11:05:25.740Z,96477.31
2022-09-23T11:07:52.070Z,96466.16
2022-09-23T11:10:35.404Z,96466.34
2022-09-23T11:13:04.714Z,96459.75
2022-09-23T11:15:31.066Z,96465.06
2022-09-23T11:17:57.397Z,96470.41
2022-09-23T11:20:23.737Z,96456.50
2022-09-23T11:22:50.078Z,96452.25
2022-09-23T11:25:16.393Z,96451.47
2022-09-23T11:27:42.723Z,96452.84
2022-09-23T11:30:09.057Z,96438.13
2022-09-23T11:32:35.395Z,96446.94
2022-09-23T11:35:01.721Z,96443.16
2022-09-23T11:37:28.052Z,96434.44
2022-09-23T11:39:54.386Z,96439.91
2022-09-23T11:42:20.721Z,96435.66
2022-09-23T11:44:47.054Z,96425.78
2022-09-23T11:47:13.383Z,96428.34
2022-09-23T11:49:39.708Z,96435.97
2022-09-23T11:52:06.019Z,96430.34
2022-09-23T11:54:32.351Z,96425.78
2022-09-23T11:56:58.693Z,96421.25
2022-09-23T11:59:36.640Z,96419.09
2022-09-23T12:02:18.225Z,96414.94
2022-09-23T12:04:56.472Z,96410.66
2022-09-23T12:07:24.284Z,96409.00
2022-09-23T12:09:58.792Z,96413.84
2022-09-23T12:12:27.189Z,96407.22
2022-09-23T12:14:53.725Z,96400.13
2022-09-23T12:17:20.056Z,96388.47
2022-09-23T12:19:46.390Z,96404.06
2022-09-23T12:22:12.721Z,96390.34
2022-09-23T12:24:39.035Z,96387.09
2022-09-23T12:27:05.373Z,96382.94
2022-09-23T12:29:31.714Z,96387.09
2022-09-23T12:31:58.045Z,96379.78
2022-09-23T12:34:24.378Z,96384.72
2022-09-23T12:36:50.713Z,96389.47
2022-09-23T12:39:17.057Z,96385.13
2022-09-23T12:41:43.372Z,96370.09
2022-09-23T12:44:09.766Z,96365.25
2022-09-23T12:46:36.124Z,96368.53
2022-09-23T12:49:02.458Z,96377.41
2022-09-23T12:51:28.784Z,96361.13
2022-09-23T12:53:55.126Z,96365.16
2022-09-23T12:56:21.470Z,96355.19
2022-09-23T12:58:47.798Z,96360.22
2022-09-23T13:01:14.305Z,96361.13
2022-09-23T13:03:40.701Z,96344.53
2022-09-23T13:06:07.021Z,96357.66
2022-09-23T13:08:33.372Z,96340.09
2022-09-23T13:10:59.706Z,96338.09
2022-09-23T13:13:26.034Z,96339.09
2022-09-23T13:15:52.356Z,96333.16
2022-09-23T13:18:18.688Z,96332.91
2022-09-23T13:20:45.018Z,96323.72
2022-09-23T13:23:11.357Z,96321.25
2022-09-23T13:25:37.664Z,96321.53
2022-09-23T13:28:04.008Z,96317.38
2022-09-23T13:30:30.341Z,96315.59
2022-09-23T13:32:56.659Z,96324.09
2022-09-23T13:35:22.991Z,96321.72
2022-09-23T13:37:49.315Z,96318.75
2022-09-23T13:40:15.694Z,96311.44
2022-09-23T13:42:42.081Z,96305.16
2022-09-23T13:45:08.419Z,96314.72
2022-09-23T13:47:34.747Z,96309.97
2022-09-23T13:50:01.087Z,96298.25
2022-09-23T13:52:27.426Z,96304.16
2022-09-23T13:54:53.761Z,96298.25
2022-09-23T13:57:20.094Z,96298.41
2022-09-23T13:59:46.416Z,96295.09
2022-09-23T14:02:12.874Z,96287.59
2022-09-23T14:04:39.243Z,96288.75
2022-09-23T14:07:05.573Z,96284.44
2022-09-23T14:09:31.927Z,96287.59
2022-09-23T14:11:58.263Z,96283.63
2022-09-23T14:14:24.602Z,96282.06
2022-09-23T14:16:50.975Z,96284.44
2022-09-23T14:19:17.312Z,96278.09
2022-09-23T14:21:43.640Z,96274.06
2022-09-23T14:24:10.023Z,96272.88
2022-09-23T14:26:36.446Z,96271.19
2022-09-23T14:29:02.928Z,96266.47
2022-09-23T14:31:29.346Z,96268.59
2022-09-23T14:33:55.669Z,96258.38
2022-09-23T14:36:21.992Z,96253.03
2022-09-23T14:38:48.321Z,96265.88
2022-09-23T14:41:14.657Z,96263.28
2022-09-23T14:43:41.028Z,96268.59
2022-09-23T14:46:07.395Z,96253.66
2022-09-23T14:48:33.776Z,96249.38
2022-09-23T14:51:00.110Z,96250.97
2022-09-23T14:53:26.441Z,96254.81
2022-09-23T14:55:52.799Z,96241.78
2022-09-23T14:58:19.144Z,96235.97
2022-09-23T15:00:45.507Z,96242.56
2022-09-23T15:03:11.914Z,96237.72
2022-09-23T15:05:38.284Z,96239.88
2022-09-23T15:08:04.615Z,96242.75
2022-09-23T15:10:30.947Z,96239.00
2022-09-23T15:12:57.278Z,96244.16
2022-09-23T15:15:23.614Z,96249.28
2022-09-23T15:17:49.932Z,96234.09
2022-09-23T15:20:16.271Z,96230.81
2022-09-23T15:22:42.602Z,96234.56
2022-09-23T15:25:08.928Z,96238.81
2022-09-23T15:27:35.263Z,96232.31
2022-09-23T15:30:01.593Z,96233.53
2022-09-23T15:32:27.924Z,96236.84
2022-09-23T15:34:54.260Z,96239.72
2022-09-23T15:37:20.577Z,96239.22
2022-09-23T15:39:46.906Z,96227.97
2022-09-23T15:42:13.233Z,96230.63
2022-09-23T15:44:39.579Z,96242.69
2022-09-23T15:47:05.902Z,96229.72
2022-09-23T15:49:32.232Z,96230.31
2022-09-23T15:51:58.562Z,96232.63
2022-09-23T15:54:24.896Z,96229.97
2022-09-23T15:56:51.225Z,96230.94
2022-09-23T15:59:17.550Z,96224.50
2022-09-23T16:01:43.967Z,96231.91
2022-09-23T16:04:10.430Z,96232.88
2022-09-23T16:06:36.774Z,96230.13
2022-09-23T16:09:03.188Z,96241.81
2022-09-23T16:13:55.842Z,96230.72
2022-09-23T16:16:22.259Z,96230.13
2022-09-23T16:18:48.665Z,96227.16
2022-09-23T16:21:15.009Z,96223.91
2022-09-23T16:23:41.325Z,96221.38
2022-09-23T16:26:07.676Z,96217.69
2022-09-23T16:28:34.071Z,96218.09
2022-09-23T16:31:00.402Z,96211.31
2022-09-23T16:33:26.733Z,96217.91
2022-09-23T16:35:53.074Z,96207.03
2022-09-23T16:38:19.429Z,96212.97
2022-09-23T16:40:47.275Z,96211.78
2022-09-23T16:43:13.828Z,96210.22
2022-09-23T16:45:40.257Z,96215.53
2022-09-23T16:48:06.653Z,96207.53
2022-09-23T16:50:32.990Z,96215.75
2022-09-23T16:52:59.316Z,96219.91
2022-09-23T16:55:25.655Z,96216.34
2022-09-23T16:57:52.006Z,96218.69
2022-09-23T17:00:18.344Z,96218.69
2022-09-23T17:02:44.721Z,96222.88
2022-09-23T17:05:11.069Z,96214.56
2022-09-23T17:07:37.417Z,96228.97
2022-09-23T17:10:03.758Z,96233.53
2022-09-23T17:12:30.089Z,96222.44
2022-09-23T17:14:56.441Z,96220.88
2022-09-23T17:17:22.771Z,96212.97
2022-09-23T17:19:49.101Z,96220.50
2022-09-23T17:22:15.433Z,96224.72
2022-09-23T17:24:41.770Z,96216.63
2022-09-23T17:29:34.382Z,96217.41
2022-09-23T17:32:00.830Z,96217.09
2022-09-23T17:34:27.297Z,96215.53
2022-09-23T17:36:53.619Z,96201.25
2022-09-23T17:39:19.943Z,96200.75
2022-09-23T17:41:46.280Z,96199.19
2022-09-23T17:44:12.621Z,96203.31
2022-09-23T17:46:38.954Z,96198.69
2022-09-23T17:49:05.313Z,96187.44
2022-09-23T17:51:31.623Z,96186.94
2022-09-23T17:53:57.987Z,96184.75
2022-09-23T17:56:24.318Z,96186.84
2022-09-23T17:58:50.650Z,96182.69
2022-09-23T18:01:17.108Z,96170.47
2022-09-23T18:03:43.570Z,96171.56
2022-09-23T18:06:09.898Z,96169.88
2022-09-23T18:08:36.230Z,96174.09
2022-09-23T18:11:02.562Z,96169.97
2022-09-23T18:13:28.888Z,96181.13
2022-09-23T18:15:55.277Z,96174.72
2022-09-23T18:18:21.684Z,96179.84
2022-09-23T18:20:48.022Z,96176.28
2022-09-23T18:23:14.363Z,96184.88
2022-09-23T18:25:40.707Z,96185.38
2022-09-23T18:28:07.036Z,96194.47
2022-09-23T18:30:33.381Z,96186.94
2022-09-23T18:32:59.731Z,96196.03
2022-09-23T18:35:26.069Z,96195.41
2022-09-23T18:37:52.413Z,96185.56
2022-09-23T18:40:18.788Z,96197.78
2022-09-23T18:42:45.167Z,96183.97
2022-09-23T18:45:11.489Z,96185.38
2022-09-23T18:47:37.815Z,96188.63
2022-09-23T18:50:04.155Z,96196.03
2022-09-23T18:52:30.491Z,96183.19
2022-09-23T18:54:56.826Z,96192.56
2022-09-23T18:57:23.148Z,96193.06
2022-09-23T18:59:49.454Z,96186.94
2022-09-23T19:02:15.832Z,96196.03
2022-09-23T19:04:42.215Z,96185.38
2022-09-23T19:07:08.544Z,96194.47
2022-09-23T19:09:34.886Z,96200.38
2022-09-23T19:12:01.201Z,96197.00
2022-09-23T19:14:27.534Z,96204.00
2022-09-23T19:16:53.868Z,96203.13
2022-09-23T19:19:20.204Z,96203.91
2022-09-23T19:27:40.520Z,96208.94
2022-09-23T19:30:06.868Z,96207.22
2022-09-23T19:32:33.212Z,96203.88
2022-09-23T19:34:59.551Z,96207.94
2022-09-23T19:37:25.899Z,96210.84
2022-09-23T19:39:52.330Z,96204.16
2022-09-23T19:42:18.663Z,96197.22
2022-09-23T19:44:45.011Z,96208.25
2022-09-23T19:47:11.402Z,96203.53
2022-09-23T19:49:37.761Z,96199.97
2022-09-23T19:52:04.098Z,96196.47
2022-09-23T19:54:30.457Z,96193.13
2022-09-23T19:56:56.839Z,96200.88
2022-09-23T19:59:23.189Z,96201.47
2022-09-23T20:01:49.603Z,96190.41
2022-09-23T20:04:16.116Z,96186.03
2022-09-23T20:06:42.508Z,96180.47
2022-09-23T20:09:08.854Z,96187.78
2022-09-23T20:11:35.195Z,96197.19
2022-09-23T20:14:01.886Z,96188.38
2022-09-23T20:16:28.513Z,96189.66
2022-09-23T20:18:54.913Z,96196.00
2022-09-23T20:21:21.270Z,96189.75
2022-09-23T20:23:47.617Z,96192.41
2022-09-23T20:26:13.949Z,96197.28
2022-09-23T20:28:40.283Z,96194.78
2022-09-23T20:31:06.693Z,96194.19
2022-09-23T20:33:33.073Z,96194.94
2022-09-23T20:35:59.417Z,96188.53
2022-09-23T20:38:25.770Z,96196.72
2022-09-23T20:40:52.158Z,96194.19
2022-09-23T20:43:18.558Z,96195.28
2022-09-23T20:45:44.906Z,96195.28
2022-09-23T20:48:11.246Z,96198.06
2022-09-23T20:50:37.594Z,96195.75
2022-09-23T20:53:03.935Z,96200.03
2022-09-23T20:55:30.289Z,96195.19
2022-09-23T20:57:56.632Z,96199.94
2022-09-23T21:00:22.960Z,96196.84
2022-09-23T21:02:49.300Z,96201.75
2022-09-23T21:05:15.637Z,96200.50
2022-09-23T21:07:41.968Z,96198.94
2022-09-23T21:10:08.297Z,96199.44
2022-09-23T21:12:34.658Z,96197.00
2022-09-23T21:15:01.007Z,96198.94
2022-09-23T21:17:27.350Z,96200.44
2022-09-23T21:19:53.695Z,96197.56
2022-09-23T21:22:20.041Z,96200.03
2022-09-23T21:25:25.954Z,96194.72
2022-09-23T21:27:32.697Z,96198.34
2022-09-23T21:29:59.020Z,96198.41
2022-09-23T21:32:25.368Z,96197.38
2022-09-23T21:34:51.709Z,96198.66
2022-09-23T21:37:18.032Z,96197.44
2022-09-23T21:39:44.383Z,96199.94
2022-09-23T21:42:10.741Z,96196.50
2022-09-23T21:44:37.105Z,96197.38
2022-09-23T21:47:03.538Z,96195.19
2022-09-23T21:49:29.927Z,96197.59
2022-09-23T21:51:56.271Z,96197.47
2022-09-23T21:54:22.610Z,96203.16
2022-09-23T21:56:48.970Z,96195.91
2022-09-23T21:59:15.323Z,96198.00
2022-09-23T22:01:41.637Z,96200.44
2022-09-23T22:04:08.591Z,96203.00
2022-09-23T22:06:35.182Z,96190.81
2022-09-23T22:09:01.529Z,96198.50
2022-09-23T22:11:27.873Z,96193.44
2022-09-23T22:13:54.210Z,96201.22
2022-09-23T22:16:20.607Z,96195.19
2022-09-23T22:18:46.988Z,96196.91
2022-09-23T22:21:13.335Z,96193.78
2022-09-23T22:23:39.673Z,96195.91
2022-09-23T22:26:06.006Z,96193.84
2022-09-23T22:28:32.350Z,96195.34
2022-09-23T22:30:58.732Z,96184.16
2022-09-23T22:33:25.077Z,96188.00
2022-09-23T22:35:51.406Z,96180.78
2022-09-23T22:38:17.757Z,96181.72
2022-09-23T22:40:44.173Z,96181.78
2022-09-23T22:43:10.557Z,96183.72
2022-09-23T22:45:36.904Z,96181.34
2022-09-23T22:48:03.238Z,96188.47
2022-09-23T22:50:29.576Z,96184.72
2022-09-23T22:52:55.926Z,96185.81
2022-09-23T22:55:22.263Z,96181.44
2022-09-23T22:57:48.588Z,96178.59
2022-09-23T23:00:14.917Z,96179.06
2022-09-23T23:02:41.248Z,96178.41
2022-09-23T23:05:07.577Z,96182.16
2022-09-23T23:07:33.922Z,96182.13
2022-09-23T23:10:00.271Z,96177.44
2022-09-23T23:12:26.613Z,96179.63
2022-09-23T23:14:52.944Z,96172.81
2022-09-23T23:17:19.305Z,96174.91
2022-09-23T23:19:45.647Z,96163.66
2022-09-23T23:22:11.986Z,96166.22
2022-09-23T23:24:38.333Z,96157.97
2022-09-23T23:27:04.663Z,96161.78
2022-09-23T23:29:31.001Z,96157.97
2022-09-23T23:31:57.338Z,96147.72
2022-09-23T23:34:23.677Z,96153.91
2022-09-23T23:36:50.014Z,96146.91
2022-09-23T23:39:16.344Z,96145.59
2022-09-23T23:41:42.682Z,96141.13
2022-09-23T23:44:09.103Z,96141.16
2022-09-23T23:46:35.624Z,96145.84
2022-09-23T23:49:02.029Z,96150.97
2022-09-23T23:51:28.374Z,96150.50
2022-09-23T23:53:54.708Z,96143.28
2022-09-23T23:56:21.049Z,96144.97
2022-09-23T23:58:47.390Z,96135.25
